sensor_id;sensor_type;location;lat;lon;timestamp;temperature;humidity
32322;DHT22;61553;48.994;8.940;2022-07-29T00:01:21;19.40;99.90
32322;DHT22;61553;48.994;8.940;2022-07-29T00:03:47;19.30;99.90
32322;DHT22;61553;48.994;8.940;2022-07-29T00:06:14;19.20;99.90
32322;DHT22;61553;48.994;8.940;2022-07-29T00:08:39;19.20;99.90
32322;DHT22;61553;48.994;8.940;2022-07-29T00:11:05;19.10;99.90
32322;DHT22;61553;48.994;8.940;2022-07-29T00:13:31;19.00;99.90
32322;DHT22;61553;48.994;8.940;2022-07-29T00:15:56;19.00;99.90
32322;DHT22;61553;48.994;8.940;2022-07-29T00:18:22;19.00;99.90
32322;DHT22;61553;48.994;8.940;2022-07-29T00:20:47;19.00;99.90
32322;DHT22;61553;48.994;8.940;2022-07-29T00:23:13;18.90;99.90
32322;DHT22;61553;48.994;8.940;2022-07-29T00:25:39;18.90;99.90
32322;DHT22;61553;48.994;8.940;2022-07-29T00:28:04;18.80;99.90
32322;DHT22;61553;48.994;8.940;2022-07-29T00:30:30;18.80;99.90
32322;DHT22;61553;48.994;8.940;2022-07-29T00:32:56;18.70;99.90
32322;DHT22;61553;48.994;8.940;2022-07-29T00:35:21;18.70;99.90
32322;DHT22;61553;48.994;8.940;2022-07-29T00:38:05;18.60;99.90
32322;DHT22;61553;48.994;8.940;2022-07-29T00:40:31;18.50;99.90
32322;DHT22;61553;48.994;8.940;2022-07-29T00:42:57;18.40;99.90
32322;DHT22;61553;48.994;8.940;2022-07-29T00:45:22;18.40;99.90
32322;DHT22;61553;48.994;8.940;2022-07-29T00:47:48;18.50;99.90
32322;DHT22;61553;48.994;8.940;2022-07-29T00:50:14;18.40;99.90
32322;DHT22;61553;48.994;8.940;2022-07-29T00:52:41;18.40;99.90
32322;DHT22;61553;48.994;8.940;2022-07-29T00:55:09;18.40;99.90
32322;DHT22;61553;48.994;8.940;2022-07-29T00:57:35;18.40;99.90
32322;DHT22;61553;48.994;8.940;2022-07-29T01:00:04;18.40;99.90
32322;DHT22;61553;48.994;8.940;2022-07-29T01:02:30;18.40;99.90
32322;DHT22;61553;48.994;8.940;2022-07-29T01:04:56;18.40;99.90
32322;DHT22;61553;48.994;8.940;2022-07-29T01:07:23;18.40;99.90
32322;DHT22;61553;48.994;8.940;2022-07-29T01:09:50;18.30;99.90
32322;DHT22;61553;48.994;8.940;2022-07-29T01:12:23;18.30;99.90
32322;DHT22;61553;48.994;8.940;2022-07-29T01:14:49;18.30;99.90
32322;DHT22;61553;48.994;8.940;2022-07-29T01:17:33;18.20;99.90
32322;DHT22;61553;48.994;8.940;2022-07-29T01:23:08;18.20;99.90
32322;DHT22;61553;48.994;8.940;2022-07-29T01:26:00;18.20;99.90
32322;DHT22;61553;48.994;8.940;2022-07-29T01:31:03;18.20;99.90
32322;DHT22;61553;48.994;8.940;2022-07-29T01:33:32;18.20;99.90
32322;DHT22;61553;48.994;8.940;2022-07-29T01:39:26;18.20;99.90
32322;DHT22;61553;48.994;8.940;2022-07-29T01:44:59;18.20;99.90
32322;DHT22;61553;48.994;8.940;2022-07-29T01:47:32;18.10;99.90
32322;DHT22;61553;48.994;8.940;2022-07-29T01:50:00;18.10;99.90
32322;DHT22;61553;48.994;8.940;2022-07-29T01:52:35;18.10;99.90
32322;DHT22;61553;48.994;8.940;2022-07-29T01:55:07;18.10;99.90
32322;DHT22;61553;48.994;8.940;2022-07-29T01:57:35;18.00;99.90
32322;DHT22;61553;48.994;8.940;2022-07-29T02:00:04;18.00;99.90
32322;DHT22;61553;48.994;8.940;2022-07-29T02:02:31;18.00;99.90
32322;DHT22;61553;48.994;8.940;2022-07-29T02:05:00;18.00;99.90
32322;DHT22;61553;48.994;8.940;2022-07-29T02:07:28;18.00;99.90
32322;DHT22;61553;48.994;8.940;2022-07-29T02:09:56;17.90;99.90
32322;DHT22;61553;48.994;8.940;2022-07-29T02:12:23;17.90;99.90
32322;DHT22;61553;48.994;8.940;2022-07-29T02:14:53;17.80;99.90
32322;DHT22;61553;48.994;8.940;2022-07-29T02:17:33;17.80;99.90
32322;DHT22;61553;48.994;8.940;2022-07-29T02:20:02;17.70;99.90
32322;DHT22;61553;48.994;8.940;2022-07-29T02:22:30;17.70;99.90
32322;DHT22;61553;48.994;8.940;2022-07-29T02:24:57;17.60;99.90
32322;DHT22;61553;48.994;8.940;2022-07-29T02:27:25;17.60;99.90
32322;DHT22;61553;48.994;8.940;2022-07-29T02:29:53;17.50;99.90
32322;DHT22;61553;48.994;8.940;2022-07-29T02:32:21;17.50;99.90
32322;DHT22;61553;48.994;8.940;2022-07-29T02:34:49;17.50;99.90
32322;DHT22;61553;48.994;8.940;2022-07-29T02:37:16;17.40;99.90
32322;DHT22;61553;48.994;8.940;2022-07-29T02:39:43;17.40;99.90
32322;DHT22;61553;48.994;8.940;2022-07-29T02:42:13;17.40;99.90
32322;DHT22;61553;48.994;8.940;2022-07-29T02:44:40;17.40;99.90
32322;DHT22;61553;48.994;8.940;2022-07-29T02:50:20;17.30;99.90
32322;DHT22;61553;48.994;8.940;2022-07-29T02:52:57;17.30;99.90
32322;DHT22;61553;48.994;8.940;2022-07-29T02:55:46;17.20;99.90
32322;DHT22;61553;48.994;8.940;2022-07-29T02:58:15;17.20;99.90
32322;DHT22;61553;48.994;8.940;2022-07-29T03:00:42;17.20;99.90
32322;DHT22;61553;48.994;8.940;2022-07-29T03:03:14;17.20;99.90
32322;DHT22;61553;48.994;8.940;2022-07-29T03:05:40;17.20;99.90
32322;DHT22;61553;48.994;8.940;2022-07-29T03:08:08;17.20;99.90
32322;DHT22;61553;48.994;8.940;2022-07-29T03:10:35;17.20;99.90
32322;DHT22;61553;48.994;8.940;2022-07-29T03:13:02;17.10;99.90
32322;DHT22;61553;48.994;8.940;2022-07-29T03:15:29;17.10;99.90
32322;DHT22;61553;48.994;8.940;2022-07-29T03:17:55;17.20;99.90
32322;DHT22;61553;48.994;8.940;2022-07-29T03:20:21;17.10;99.90
32322;DHT22;61553;48.994;8.940;2022-07-29T03:22:47;17.10;99.90
32322;DHT22;61553;48.994;8.940;2022-07-29T03:25:14;17.10;99.90
32322;DHT22;61553;48.994;8.940;2022-07-29T03:27:40;17.10;99.90
32322;DHT22;61553;48.994;8.940;2022-07-29T03:30:07;17.00;99.90
32322;DHT22;61553;48.994;8.940;2022-07-29T03:32:34;17.00;99.90
32322;DHT22;61553;48.994;8.940;2022-07-29T03:34:59;17.00;99.90
32322;DHT22;61553;48.994;8.940;2022-07-29T03:37:25;17.00;99.90
32322;DHT22;61553;48.994;8.940;2022-07-29T03:39:52;17.00;99.90
32322;DHT22;61553;48.994;8.940;2022-07-29T03:42:20;17.00;99.90
32322;DHT22;61553;48.994;8.940;2022-07-29T03:44:47;17.00;99.90
32322;DHT22;61553;48.994;8.940;2022-07-29T03:47:15;16.90;99.90
32322;DHT22;61553;48.994;8.940;2022-07-29T03:49:44;16.90;99.90
32322;DHT22;61553;48.994;8.940;2022-07-29T03:52:13;16.90;99.90
32322;DHT22;61553;48.994;8.940;2022-07-29T03:54:39;16.80;99.90
32322;DHT22;61553;48.994;8.940;2022-07-29T03:57:06;16.80;99.90
32322;DHT22;61553;48.994;8.940;2022-07-29T03:59:33;16.80;99.90
32322;DHT22;61553;48.994;8.940;2022-07-29T04:02:03;16.80;99.90
32322;DHT22;61553;48.994;8.940;2022-07-29T04:04:32;16.90;99.90
32322;DHT22;61553;48.994;8.940;2022-07-29T04:06:58;16.90;99.90
32322;DHT22;61553;48.994;8.940;2022-07-29T04:09:24;16.90;99.90
32322;DHT22;61553;48.994;8.940;2022-07-29T04:11:50;16.90;99.90
32322;DHT22;61553;48.994;8.940;2022-07-29T04:14:15;16.90;99.90
32322;DHT22;61553;48.994;8.940;2022-07-29T04:16:41;16.90;99.90
32322;DHT22;61553;48.994;8.940;2022-07-29T04:19:07;16.90;99.90
32322;DHT22;61553;48.994;8.940;2022-07-29T04:21:37;17.00;99.90
32322;DHT22;61553;48.994;8.940;2022-07-29T04:24:03;17.00;99.90
32322;DHT22;61553;48.994;8.940;2022-07-29T04:26:29;17.10;99.90
32322;DHT22;61553;48.994;8.940;2022-07-29T04:28:54;17.20;99.90
32322;DHT22;61553;48.994;8.940;2022-07-29T04:31:20;17.20;99.90
32322;DHT22;61553;48.994;8.940;2022-07-29T04:33:46;17.40;99.90
32322;DHT22;61553;48.994;8.940;2022-07-29T04:36:11;17.50;99.90
32322;DHT22;61553;48.994;8.940;2022-07-29T04:38:37;17.50;99.90
32322;DHT22;61553;48.994;8.940;2022-07-29T04:41:03;17.60;99.90
32322;DHT22;61553;48.994;8.940;2022-07-29T04:43:29;17.70;99.90
32322;DHT22;61553;48.994;8.940;2022-07-29T04:45:54;17.70;99.90
32322;DHT22;61553;48.994;8.940;2022-07-29T04:48:20;17.70;99.90
32322;DHT22;61553;48.994;8.940;2022-07-29T04:50:46;17.80;99.90
32322;DHT22;61553;48.994;8.940;2022-07-29T04:53:11;17.80;99.90
32322;DHT22;61553;48.994;8.940;2022-07-29T04:55:37;17.80;99.90
32322;DHT22;61553;48.994;8.940;2022-07-29T04:58:03;17.80;99.90
32322;DHT22;61553;48.994;8.940;2022-07-29T05:00:28;17.90;99.90
32322;DHT22;61553;48.994;8.940;2022-07-29T05:02:54;17.90;99.90
32322;DHT22;61553;48.994;8.940;2022-07-29T05:05:19;18.00;99.90
32322;DHT22;61553;48.994;8.940;2022-07-29T05:07:45;18.10;99.90
32322;DHT22;61553;48.994;8.940;2022-07-29T05:10:11;18.30;99.90
32322;DHT22;61553;48.994;8.940;2022-07-29T05:12:37;18.40;99.90
32322;DHT22;61553;48.994;8.940;2022-07-29T05:15:03;18.50;99.90
32322;DHT22;61553;48.994;8.940;2022-07-29T05:17:28;18.60;99.90
32322;DHT22;61553;48.994;8.940;2022-07-29T05:19:54;18.60;99.90
32322;DHT22;61553;48.994;8.940;2022-07-29T05:22:20;18.80;99.90
32322;DHT22;61553;48.994;8.940;2022-07-29T05:24:46;18.90;99.90
32322;DHT22;61553;48.994;8.940;2022-07-29T05:27:12;19.10;99.90
32322;DHT22;61553;48.994;8.940;2022-07-29T05:29:38;19.40;99.90
32322;DHT22;61553;48.994;8.940;2022-07-29T05:32:05;19.80;99.90
32322;DHT22;61553;48.994;8.940;2022-07-29T05:34:31;22.10;99.90
32322;DHT22;61553;48.994;8.940;2022-07-29T05:36:57;24.00;99.90
32322;DHT22;61553;48.994;8.940;2022-07-29T05:39:23;24.40;99.90
32322;DHT22;61553;48.994;8.940;2022-07-29T05:41:49;25.60;99.90
32322;DHT22;61553;48.994;8.940;2022-07-29T05:44:14;25.70;99.90
32322;DHT22;61553;48.994;8.940;2022-07-29T05:46:40;24.70;99.90
32322;DHT22;61553;48.994;8.940;2022-07-29T05:49:06;24.00;99.90
32322;DHT22;61553;48.994;8.940;2022-07-29T05:51:35;23.70;99.90
32322;DHT22;61553;48.994;8.940;2022-07-29T05:54:01;23.30;99.90
32322;DHT22;61553;48.994;8.940;2022-07-29T05:56:27;23.10;99.90
32322;DHT22;61553;48.994;8.940;2022-07-29T05:58:53;22.70;99.90
32322;DHT22;61553;48.994;8.940;2022-07-29T06:01:19;22.60;99.90
32322;DHT22;61553;48.994;8.940;2022-07-29T06:03:44;22.50;99.90
32322;DHT22;61553;48.994;8.940;2022-07-29T06:06:10;22.40;99.90
32322;DHT22;61553;48.994;8.940;2022-07-29T06:08:37;22.50;99.90
32322;DHT22;61553;48.994;8.940;2022-07-29T06:11:04;23.90;99.90
32322;DHT22;61553;48.994;8.940;2022-07-29T06:13:30;27.30;99.30
32322;DHT22;61553;48.994;8.940;2022-07-29T06:15:56;29.00;92.70
32322;DHT22;61553;48.994;8.940;2022-07-29T06:18:22;28.80;90.90
32322;DHT22;61553;48.994;8.940;2022-07-29T06:20:52;29.70;87.40
32322;DHT22;61553;48.994;8.940;2022-07-29T06:23:19;28.70;87.60
32322;DHT22;61553;48.994;8.940;2022-07-29T06:25:44;27.80;89.90
32322;DHT22;61553;48.994;8.940;2022-07-29T06:28:10;27.10;91.20
32322;DHT22;61553;48.994;8.940;2022-07-29T06:30:36;26.70;91.90
32322;DHT22;61553;48.994;8.940;2022-07-29T06:33:02;26.30;92.80
32322;DHT22;61553;48.994;8.940;2022-07-29T06:35:28;25.80;93.90
32322;DHT22;61553;48.994;8.940;2022-07-29T06:37:53;26.40;93.50
32322;DHT22;61553;48.994;8.940;2022-07-29T06:40:20;27.40;91.80
32322;DHT22;61553;48.994;8.940;2022-07-29T06:43:04;27.20;91.40
32322;DHT22;61553;48.994;8.940;2022-07-29T06:45:33;26.70;92.50
32322;DHT22;61553;48.994;8.940;2022-07-29T06:47:59;26.20;93.20
32322;DHT22;61553;48.994;8.940;2022-07-29T06:50:25;25.90;93.70
32322;DHT22;61553;48.994;8.940;2022-07-29T06:52:50;27.20;92.40
32322;DHT22;61553;48.994;8.940;2022-07-29T06:55:16;30.40;86.10
32322;DHT22;61553;48.994;8.940;2022-07-29T06:57:44;32.50;77.20
32322;DHT22;61553;48.994;8.940;2022-07-29T07:00:11;33.30;72.30
32322;DHT22;61553;48.994;8.940;2022-07-29T07:02:36;33.80;67.90
32322;DHT22;61553;48.994;8.940;2022-07-29T07:05:02;33.40;65.10
32322;DHT22;61553;48.994;8.940;2022-07-29T07:07:28;34.10;63.90
32322;DHT22;61553;48.994;8.940;2022-07-29T07:09:54;34.10;62.20
32322;DHT22;61553;48.994;8.940;2022-07-29T07:12:20;33.20;63.10
32322;DHT22;61553;48.994;8.940;2022-07-29T07:14:45;32.30;64.30
32322;DHT22;61553;48.994;8.940;2022-07-29T07:17:11;31.80;65.70
32322;DHT22;61553;48.994;8.940;2022-07-29T07:19:36;30.90;67.20
32322;DHT22;61553;48.994;8.940;2022-07-29T07:22:02;31.20;67.30
32322;DHT22;61553;48.994;8.940;2022-07-29T07:24:28;32.90;65.40
32322;DHT22;61553;48.994;8.940;2022-07-29T07:26:53;35.30;60.50
32322;DHT22;61553;48.994;8.940;2022-07-29T07:29:19;37.30;56.30
32322;DHT22;61553;48.994;8.940;2022-07-29T07:31:45;38.80;53.10
32322;DHT22;61553;48.994;8.940;2022-07-29T07:34:10;40.00;49.70
32322;DHT22;61553;48.994;8.940;2022-07-29T07:36:36;40.80;47.40
32322;DHT22;61553;48.994;8.940;2022-07-29T07:39:02;41.10;46.00
32322;DHT22;61553;48.994;8.940;2022-07-29T07:41:29;40.30;45.20
32322;DHT22;61553;48.994;8.940;2022-07-29T07:43:54;39.70;45.80
32322;DHT22;61553;48.994;8.940;2022-07-29T07:46:20;39.20;45.70
32322;DHT22;61553;48.994;8.940;2022-07-29T07:48:45;37.90;47.10
32322;DHT22;61553;48.994;8.940;2022-07-29T07:51:11;37.60;47.50
32322;DHT22;61553;48.994;8.940;2022-07-29T07:53:37;37.10;47.70
32322;DHT22;61553;48.994;8.940;2022-07-29T07:56:02;36.10;49.40
32322;DHT22;61553;48.994;8.940;2022-07-29T07:58:29;35.10;51.10
32322;DHT22;61553;48.994;8.940;2022-07-29T08:00:55;35.40;50.00
32322;DHT22;61553;48.994;8.940;2022-07-29T08:03:20;36.20;48.70
32322;DHT22;61553;48.994;8.940;2022-07-29T08:05:46;37.70;46.70
32322;DHT22;61553;48.994;8.940;2022-07-29T08:08:12;37.90;46.40
32322;DHT22;61553;48.994;8.940;2022-07-29T08:10:38;38.10;46.10
32322;DHT22;61553;48.994;8.940;2022-07-29T08:13:24;37.60;46.50
32322;DHT22;61553;48.994;8.940;2022-07-29T08:15:52;37.30;46.50
32322;DHT22;61553;48.994;8.940;2022-07-29T08:18:26;37.10;46.60
32322;DHT22;61553;48.994;8.940;2022-07-29T08:20:52;37.60;45.20
32322;DHT22;61553;48.994;8.940;2022-07-29T08:23:18;36.80;45.20
32322;DHT22;61553;48.994;8.940;2022-07-29T08:25:48;35.80;46.80
32322;DHT22;61553;48.994;8.940;2022-07-29T08:28:14;34.50;48.80
32322;DHT22;61553;48.994;8.940;2022-07-29T08:30:39;34.50;49.10
32322;DHT22;61553;48.994;8.940;2022-07-29T08:33:05;34.60;48.50
32322;DHT22;61553;48.994;8.940;2022-07-29T08:35:31;34.00;49.70
32322;DHT22;61553;48.994;8.940;2022-07-29T08:37:57;34.80;48.80
32322;DHT22;61553;48.994;8.940;2022-07-29T08:40:23;35.10;48.30
32322;DHT22;61553;48.994;8.940;2022-07-29T08:42:50;34.80;48.10
32322;DHT22;61553;48.994;8.940;2022-07-29T08:45:16;34.50;48.80
32322;DHT22;61553;48.994;8.940;2022-07-29T08:47:44;35.10;48.50
32322;DHT22;61553;48.994;8.940;2022-07-29T08:50:11;36.20;47.30
32322;DHT22;61553;48.994;8.940;2022-07-29T08:52:40;37.80;45.40
32322;DHT22;61553;48.994;8.940;2022-07-29T08:55:07;39.00;44.20
32322;DHT22;61553;48.994;8.940;2022-07-29T08:57:34;39.60;42.90
32322;DHT22;61553;48.994;8.940;2022-07-29T09:00:02;39.70;42.70
32322;DHT22;61553;48.994;8.940;2022-07-29T09:02:29;40.60;41.90
32322;DHT22;61553;48.994;8.940;2022-07-29T09:05:00;42.40;40.20
32322;DHT22;61553;48.994;8.940;2022-07-29T09:07:27;43.50;38.50
32322;DHT22;61553;48.994;8.940;2022-07-29T09:09:52;44.00;38.10
32322;DHT22;61553;48.994;8.940;2022-07-29T09:12:18;43.90;37.40
32322;DHT22;61553;48.994;8.940;2022-07-29T09:14:44;44.30;37.10
32322;DHT22;61553;48.994;8.940;2022-07-29T09:17:10;42.20;39.10
32322;DHT22;61553;48.994;8.940;2022-07-29T09:19:36;42.00;38.80
32322;DHT22;61553;48.994;8.940;2022-07-29T09:22:04;42.90;37.80
32322;DHT22;61553;48.994;8.940;2022-07-29T09:24:41;42.70;37.60
32322;DHT22;61553;48.994;8.940;2022-07-29T09:27:18;43.00;36.60
32322;DHT22;61553;48.994;8.940;2022-07-29T09:29:55;43.80;35.80
32322;DHT22;61553;48.994;8.940;2022-07-29T09:32:21;44.10;35.00
32322;DHT22;61553;48.994;8.940;2022-07-29T09:34:47;42.70;34.90
32322;DHT22;61553;48.994;8.940;2022-07-29T09:37:26;42.80;34.80
32322;DHT22;61553;48.994;8.940;2022-07-29T09:39:52;42.50;35.70
32322;DHT22;61553;48.994;8.940;2022-07-29T09:42:28;42.30;35.50
32322;DHT22;61553;48.994;8.940;2022-07-29T09:44:54;42.80;35.40
32322;DHT22;61553;48.994;8.940;2022-07-29T09:47:20;43.30;34.50
32322;DHT22;61553;48.994;8.940;2022-07-29T09:49:57;43.20;34.90
32322;DHT22;61553;48.994;8.940;2022-07-29T09:52:26;43.50;33.90
32322;DHT22;61553;48.994;8.940;2022-07-29T09:54:52;43.50;33.60
32322;DHT22;61553;48.994;8.940;2022-07-29T09:57:27;43.40;33.60
32322;DHT22;61553;48.994;8.940;2022-07-29T10:02:32;42.70;34.00
32322;DHT22;61553;48.994;8.940;2022-07-29T10:05:01;43.80;33.40
32322;DHT22;61553;48.994;8.940;2022-07-29T10:07:46;44.50;32.70
32322;DHT22;61553;48.994;8.940;2022-07-29T10:10:23;44.20;32.70
32322;DHT22;61553;48.994;8.940;2022-07-29T10:12:57;44.40;32.60
32322;DHT22;61553;48.994;8.940;2022-07-29T10:15:25;43.80;33.50
32322;DHT22;61553;48.994;8.940;2022-07-29T10:17:53;43.40;33.90
32322;DHT22;61553;48.994;8.940;2022-07-29T10:20:20;43.50;33.20
32322;DHT22;61553;48.994;8.940;2022-07-29T10:22:50;43.60;33.10
32322;DHT22;61553;48.994;8.940;2022-07-29T10:25:17;42.80;32.60
32322;DHT22;61553;48.994;8.940;2022-07-29T10:27:46;42.10;33.70
32322;DHT22;61553;48.994;8.940;2022-07-29T10:30:14;41.60;34.00
32322;DHT22;61553;48.994;8.940;2022-07-29T10:32:51;41.00;34.60
32322;DHT22;61553;48.994;8.940;2022-07-29T10:44:06;37.00;37.60
32322;DHT22;61553;48.994;8.940;2022-07-29T10:46:37;36.30;38.40
32322;DHT22;61553;48.994;8.940;2022-07-29T10:57:23;34.10;40.80
32322;DHT22;61553;48.994;8.940;2022-07-29T11:05:06;33.20;41.80
32322;DHT22;61553;48.994;8.940;2022-07-29T11:07:34;32.90;41.90
32322;DHT22;61553;48.994;8.940;2022-07-29T11:15:07;32.30;43.30
32322;DHT22;61553;48.994;8.940;2022-07-29T11:23:29;31.60;44.10
32322;DHT22;61553;48.994;8.940;2022-07-29T11:26:13;31.60;44.40
32322;DHT22;61553;48.994;8.940;2022-07-29T11:29:03;31.50;44.60
32322;DHT22;61553;48.994;8.940;2022-07-29T11:31:38;31.30;44.30
32322;DHT22;61553;48.994;8.940;2022-07-29T11:39:30;31.80;42.80
32322;DHT22;61553;48.994;8.940;2022-07-29T11:45:00;32.20;44.00
32322;DHT22;61553;48.994;8.940;2022-07-29T11:47:28;32.50;43.40
32322;DHT22;61553;48.994;8.940;2022-07-29T11:49:56;32.70;43.50
32322;DHT22;61553;48.994;8.940;2022-07-29T11:52:33;32.60;43.20
32322;DHT22;61553;48.994;8.940;2022-07-29T11:55:02;32.40;43.20
32322;DHT22;61553;48.994;8.940;2022-07-29T11:57:29;32.50;43.40
32322;DHT22;61553;48.994;8.940;2022-07-29T11:59:55;32.50;43.30
32322;DHT22;61553;48.994;8.940;2022-07-29T12:02:22;32.60;43.20
32322;DHT22;61553;48.994;8.940;2022-07-29T12:04:55;32.60;42.70
32322;DHT22;61553;48.994;8.940;2022-07-29T12:07:29;32.40;43.60
32322;DHT22;61553;48.994;8.940;2022-07-29T12:09:55;32.40;44.00
32322;DHT22;61553;48.994;8.940;2022-07-29T12:12:21;32.30;43.30
32322;DHT22;61553;48.994;8.940;2022-07-29T12:14:47;32.10;43.40
32322;DHT22;61553;48.994;8.940;2022-07-29T12:17:32;31.90;43.40
32322;DHT22;61553;48.994;8.940;2022-07-29T12:20:01;31.50;43.80
32322;DHT22;61553;48.994;8.940;2022-07-29T12:22:30;31.30;44.50
32322;DHT22;61553;48.994;8.940;2022-07-29T12:25:01;31.20;45.00
32322;DHT22;61553;48.994;8.940;2022-07-29T12:27:28;31.10;45.00
32322;DHT22;61553;48.994;8.940;2022-07-29T12:30:03;31.00;46.20
32322;DHT22;61553;48.994;8.940;2022-07-29T12:35:09;30.50;46.10
32322;DHT22;61553;48.994;8.940;2022-07-29T12:37:38;30.50;46.40
32322;DHT22;61553;48.994;8.940;2022-07-29T12:40:05;30.30;46.90
32322;DHT22;61553;48.994;8.940;2022-07-29T12:42:32;30.20;47.00
32322;DHT22;61553;48.994;8.940;2022-07-29T12:44:57;30.10;47.30
32322;DHT22;61553;48.994;8.940;2022-07-29T12:47:23;30.10;47.30
32322;DHT22;61553;48.994;8.940;2022-07-29T12:49:49;30.10;47.20
32322;DHT22;61553;48.994;8.940;2022-07-29T12:54:50;30.40;46.50
32322;DHT22;61553;48.994;8.940;2022-07-29T12:57:16;30.50;47.10
32322;DHT22;61553;48.994;8.940;2022-07-29T12:59:42;30.60;46.90
32322;DHT22;61553;48.994;8.940;2022-07-29T13:02:20;30.60;46.90
32322;DHT22;61553;48.994;8.940;2022-07-29T13:04:59;30.70;46.30
32322;DHT22;61553;48.994;8.940;2022-07-29T13:07:28;30.70;45.60
32322;DHT22;61553;48.994;8.940;2022-07-29T13:10:18;30.90;46.20
32322;DHT22;61553;48.994;8.940;2022-07-29T13:15:29;31.20;45.30
32322;DHT22;61553;48.994;8.940;2022-07-29T13:17:55;31.20;45.60
32322;DHT22;61553;48.994;8.940;2022-07-29T13:20:24;31.20;45.10
32322;DHT22;61553;48.994;8.940;2022-07-29T13:22:50;31.10;45.50
32322;DHT22;61553;48.994;8.940;2022-07-29T13:25:30;31.00;45.20
32322;DHT22;61553;48.994;8.940;2022-07-29T13:27:58;31.00;45.30
32322;DHT22;61553;48.994;8.940;2022-07-29T13:30:24;30.90;45.60
32322;DHT22;61553;48.994;8.940;2022-07-29T13:32:52;31.00;45.80
32322;DHT22;61553;48.994;8.940;2022-07-29T13:35:18;31.00;45.60
32322;DHT22;61553;48.994;8.940;2022-07-29T13:37:44;31.10;44.90
32322;DHT22;61553;48.994;8.940;2022-07-29T13:40:11;31.10;44.30
32322;DHT22;61553;48.994;8.940;2022-07-29T13:42:37;31.00;44.60
32322;DHT22;61553;48.994;8.940;2022-07-29T13:45:03;30.90;44.40
32322;DHT22;61553;48.994;8.940;2022-07-29T13:47:30;30.90;44.70
32322;DHT22;61553;48.994;8.940;2022-07-29T13:49:55;30.90;44.80
32322;DHT22;61553;48.994;8.940;2022-07-29T13:52:21;31.00;44.90
32322;DHT22;61553;48.994;8.940;2022-07-29T13:54:47;31.00;44.40
32322;DHT22;61553;48.994;8.940;2022-07-29T13:57:13;30.80;44.50
32322;DHT22;61553;48.994;8.940;2022-07-29T13:59:40;30.70;44.10
32322;DHT22;61553;48.994;8.940;2022-07-29T14:02:08;30.70;44.70
32322;DHT22;61553;48.994;8.940;2022-07-29T14:04:34;30.70;44.60
32322;DHT22;61553;48.994;8.940;2022-07-29T14:06:59;30.70;44.20
32322;DHT22;61553;48.994;8.940;2022-07-29T14:09:25;30.80;44.50
32322;DHT22;61553;48.994;8.940;2022-07-29T14:11:51;30.90;44.70
32322;DHT22;61553;48.994;8.940;2022-07-29T14:14:18;31.00;45.40
32322;DHT22;61553;48.994;8.940;2022-07-29T14:16:44;31.00;45.40
32322;DHT22;61553;48.994;8.940;2022-07-29T14:19:09;31.20;45.00
32322;DHT22;61553;48.994;8.940;2022-07-29T14:21:36;31.10;44.40
32322;DHT22;61553;48.994;8.940;2022-07-29T14:24:02;31.00;44.80
32322;DHT22;61553;48.994;8.940;2022-07-29T14:26:28;30.90;44.30
32322;DHT22;61553;48.994;8.940;2022-07-29T14:28:53;30.80;45.00
32322;DHT22;61553;48.994;8.940;2022-07-29T14:31:19;30.70;44.70
32322;DHT22;61553;48.994;8.940;2022-07-29T14:33:45;30.70;44.80
32322;DHT22;61553;48.994;8.940;2022-07-29T14:36:11;30.70;44.80
32322;DHT22;61553;48.994;8.940;2022-07-29T14:38:36;30.70;44.40
32322;DHT22;61553;48.994;8.940;2022-07-29T14:41:03;30.70;44.00
32322;DHT22;61553;48.994;8.940;2022-07-29T14:43:29;30.50;44.40
32322;DHT22;61553;48.994;8.940;2022-07-29T14:45:54;30.50;45.00
32322;DHT22;61553;48.994;8.940;2022-07-29T14:48:20;30.40;44.70
32322;DHT22;61553;48.994;8.940;2022-07-29T14:50:46;30.20;44.10
32322;DHT22;61553;48.994;8.940;2022-07-29T14:53:11;29.90;44.10
32322;DHT22;61553;48.994;8.940;2022-07-29T14:55:39;29.80;45.20
32322;DHT22;61553;48.994;8.940;2022-07-29T14:58:04;29.90;44.50
32322;DHT22;61553;48.994;8.940;2022-07-29T15:00:30;29.90;43.80
32322;DHT22;61553;48.994;8.940;2022-07-29T15:02:58;29.80;43.70
32322;DHT22;61553;48.994;8.940;2022-07-29T15:05:24;29.80;43.80
32322;DHT22;61553;48.994;8.940;2022-07-29T15:07:50;29.80;43.90
32322;DHT22;61553;48.994;8.940;2022-07-29T15:10:16;29.80;43.30
32322;DHT22;61553;48.994;8.940;2022-07-29T15:12:41;29.70;43.20
32322;DHT22;61553;48.994;8.940;2022-07-29T15:15:07;29.70;44.50
32322;DHT22;61553;48.994;8.940;2022-07-29T15:17:34;29.80;44.40
32322;DHT22;61553;48.994;8.940;2022-07-29T15:19:59;29.60;43.20
32322;DHT22;61553;48.994;8.940;2022-07-29T15:22:25;29.50;43.30
32322;DHT22;61553;48.994;8.940;2022-07-29T15:24:51;29.40;43.90
32322;DHT22;61553;48.994;8.940;2022-07-29T15:27:16;29.40;44.80
32322;DHT22;61553;48.994;8.940;2022-07-29T15:29:43;29.20;44.10
32322;DHT22;61553;48.994;8.940;2022-07-29T15:32:09;29.10;44.70
32322;DHT22;61553;48.994;8.940;2022-07-29T15:34:36;29.20;44.80
32322;DHT22;61553;48.994;8.940;2022-07-29T15:37:02;29.20;44.20
32322;DHT22;61553;48.994;8.940;2022-07-29T15:39:28;29.20;44.40
32322;DHT22;61553;48.994;8.940;2022-07-29T15:41:53;29.20;44.90
32322;DHT22;61553;48.994;8.940;2022-07-29T15:44:19;29.10;44.80
32322;DHT22;61553;48.994;8.940;2022-07-29T15:46:46;28.90;44.40
32322;DHT22;61553;48.994;8.940;2022-07-29T15:49:40;28.70;44.10
32322;DHT22;61553;48.994;8.940;2022-07-29T15:52:08;28.70;45.00
32322;DHT22;61553;48.994;8.940;2022-07-29T15:54:35;28.90;44.80
32322;DHT22;61553;48.994;8.940;2022-07-29T15:57:01;29.10;44.60
32322;DHT22;61553;48.994;8.940;2022-07-29T15:59:27;29.20;45.20
32322;DHT22;61553;48.994;8.940;2022-07-29T16:01:53;29.30;44.60
32322;DHT22;61553;48.994;8.940;2022-07-29T16:04:19;29.30;44.70
32322;DHT22;61553;48.994;8.940;2022-07-29T16:06:45;29.20;44.70
32322;DHT22;61553;48.994;8.940;2022-07-29T16:09:11;29.10;44.80
32322;DHT22;61553;48.994;8.940;2022-07-29T16:11:37;29.10;45.00
32322;DHT22;61553;48.994;8.940;2022-07-29T16:14:03;29.10;45.00
32322;DHT22;61553;48.994;8.940;2022-07-29T16:16:29;29.20;45.10
32322;DHT22;61553;48.994;8.940;2022-07-29T16:18:54;29.20;45.60
32322;DHT22;61553;48.994;8.940;2022-07-29T16:21:20;29.30;45.00
32322;DHT22;61553;48.994;8.940;2022-07-29T16:23:47;29.40;44.80
32322;DHT22;61553;48.994;8.940;2022-07-29T16:26:13;29.50;44.30
32322;DHT22;61553;48.994;8.940;2022-07-29T16:28:39;29.50;44.90
32322;DHT22;61553;48.994;8.940;2022-07-29T16:31:04;29.60;44.50
32322;DHT22;61553;48.994;8.940;2022-07-29T16:33:30;29.80;44.90
32322;DHT22;61553;48.994;8.940;2022-07-29T16:35:56;29.90;45.10
32322;DHT22;61553;48.994;8.940;2022-07-29T16:38:21;29.70;42.50
32322;DHT22;61553;48.994;8.940;2022-07-29T16:40:47;29.70;42.50